This is the latest recevied weather packets stored in our database for station/object KD8UYA. If no packets are shown the sender has not sent any weather packets the latest 10 day(s).
| Time | Temp. | Humidity | Pressure | Rain* | Wind** | Luminosity | Snow |
|---|---|---|---|---|---|---|---|
| 1777869026 | 10° C | 70% | 1010.2 hPa | 0 mm | - | - | - |
| 1777868128 | 10° C | 69% | 1010.3 hPa | 0 mm | - | - | - |
| 1777867223 | 10° C | 70% | 1010.5 hPa | 0 mm | - | - | - |
| 1777866319 | 10.56° C | 69% | 1010.6 hPa | 0 mm | - | - | - |
| 1777865422 | 10.56° C | 68% | 1010.7 hPa | 0 mm | - | - | - |
| 1777864519 | 10.56° C | 69% | 1010.9 hPa | 0 mm | - | - | - |
| 1777863628 | 10.56° C | 70% | 1011.1 hPa | 0 mm | - | - | - |
| 1777862717 | 10° C | 69% | 1011.1 hPa | 0 mm | - | - | - |
| 1777861816 | 10° C | 69% | 1011.2 hPa | 0 mm | - | - | - |
| 1777860916 | 10° C | 68% | 1011.3 hPa | 0 mm | - | - | - |
| 1777860019 | 10.56° C | 67% | 1011.3 hPa | 0 mm | - | - | - |
| 1777859114 | 10.56° C | 64% | 1011.3 hPa | 0 mm | - | - | - |
| 1777858215 | 10.56° C | 65% | 1011.1 hPa | 0 mm | - | - | - |
| 1777857315 | 11.11° C | 62% | 1010.6 hPa | 0 mm | - | - | - |
| 1777856414 | 11.67° C | 59% | 1010.7 hPa | 0 mm | - | - | - |
| 1777855520 | 12.22° C | 54% | 1010.7 hPa | 0 mm | - | - | - |
| 1777854612 | 12.78° C | 52% | 1010.6 hPa | 0 mm | - | - | - |
| 1777853712 | 12.78° C | 50% | 1010.6 hPa | 0 mm | - | - | - |
| 1777852812 | 13.33° C | 49% | 1010.7 hPa | 0 mm | - | - | - |
| 1777851921 | 13.89° C | 48% | 1010.7 hPa | 0 mm | - | - | - |
| 1777851010 | 14.44° C | 47% | 1010.8 hPa | 0 mm | - | - | - |
| 1777850109 | 14.44° C | 47% | 1010.9 hPa | 0 mm | - | - | - |
| 1777849211 | 13.89° C | 48% | 1011 hPa | 0 mm | - | - | - |
| 1777848311 | 13.89° C | 48% | 1011.1 hPa | 0 mm | - | - | - |
| 1777847408 | 13.89° C | 49% | 1011.2 hPa | 0 mm | - | - | - |
* Rain latest hour (hover to see other rain measurements)
** Current wind speed in m/s (hover to see current wind gust speed)